createdAt,value
2023-08-13T00:00:14.403Z,8.40
2023-08-13T00:08:18.510Z,10.45
2023-08-13T00:13:55.388Z,10.38
2023-08-13T00:19:30.400Z,13.08
2023-08-13T00:22:37.595Z,11.22
2023-08-13T00:28:10.471Z,9.85
2023-08-13T00:31:15.735Z,8.55
2023-08-13T00:36:48.939Z,8.53
2023-08-13T00:42:23.977Z,10.23
2023-08-13T00:47:58.830Z,8.85
2023-08-13T00:53:34.392Z,10.45
2023-08-13T00:59:08.932Z,10.60
2023-08-13T01:04:45.662Z,11.73
2023-08-13T01:10:48.946Z,14.23
2023-08-13T01:16:25.162Z,16.67
2023-08-13T01:22:02.133Z,10.60
2023-08-13T01:30:24.353Z,14.30
2023-08-13T01:41:08.186Z,12.33
2023-08-13T01:44:17.000Z,10.80
2023-08-13T01:49:52.500Z,12.00
2023-08-13T01:55:29.169Z,15.50
2023-08-13T02:01:05.273Z,12.98
2023-08-13T02:06:43.485Z,12.25
2023-08-13T02:12:21.535Z,13.00
2023-08-13T02:20:28.204Z,15.05
2023-08-13T02:26:04.488Z,13.03
2023-08-13T02:31:39.140Z,16.30
2023-08-13T02:34:48.381Z,12.88
2023-08-13T02:40:24.531Z,12.73
2023-08-13T02:48:28.876Z,12.63
2023-08-13T02:51:34.680Z,14.47
2023-08-13T02:57:10.856Z,14.80
2023-08-13T03:02:46.746Z,13.03
2023-08-13T03:08:22.589Z,15.08
2023-08-13T03:11:29.157Z,13.22
2023-08-13T03:19:32.084Z,16.55
2023-08-13T03:25:07.436Z,16.55
2023-08-13T03:33:15.477Z,15.28
2023-08-13T03:38:49.739Z,16.00
2023-08-13T03:41:54.178Z,14.80
2023-08-13T03:47:30.453Z,15.18
2023-08-13T03:53:07.836Z,18.73
2023-08-13T04:01:21.707Z,14.50
2023-08-13T04:04:28.997Z,15.90
2023-08-13T04:07:05.030Z,15.23
2023-08-13T04:09:48.476Z,17.92
2023-08-13T04:15:26.345Z,15.80
2023-08-13T04:18:33.075Z,14.95
2023-08-13T04:21:42.812Z,14.15
2023-08-13T04:24:48.902Z,19.05
2023-08-13T04:27:55.854Z,15.65
2023-08-13T04:31:03.265Z,16.27
2023-08-13T04:34:09.833Z,15.68
2023-08-13T04:37:15.798Z,14.90
2023-08-13T04:40:24.238Z,16.52
2023-08-13T04:48:32.971Z,16.85
2023-08-13T04:54:06.385Z,17.05
2023-08-13T04:59:42.043Z,19.37
2023-08-13T05:05:18.399Z,16.52
2023-08-13T05:10:54.222Z,17.27
2023-08-13T05:16:28.542Z,18.45
2023-08-13T05:22:05.424Z,14.63
2023-08-13T05:25:10.766Z,13.53
2023-08-13T05:30:45.914Z,13.13
2023-08-13T05:33:51.203Z,16.10
2023-08-13T05:39:26.661Z,13.18
2023-08-13T05:45:01.813Z,12.35
2023-08-13T05:50:39.423Z,12.13
2023-08-13T05:56:15.326Z,13.30
2023-08-13T05:59:21.048Z,14.03
2023-08-13T06:04:55.028Z,10.03
2023-08-13T06:10:30.025Z,11.20
2023-08-13T06:16:06.609Z,11.65
2023-08-13T06:21:41.586Z,10.23
2023-08-13T06:27:17.234Z,9.55
2023-08-13T06:35:23.615Z,9.73
2023-08-13T06:40:58.900Z,8.88
2023-08-13T06:46:33.797Z,9.00
2023-08-13T06:54:37.602Z,9.28
2023-08-13T06:57:43.995Z,9.58
2023-08-13T07:05:49.573Z,7.72
2023-08-13T07:08:54.872Z,6.60
2023-08-13T07:12:02.474Z,6.90
2023-08-13T07:17:37.981Z,7.85
2023-08-13T07:23:14.415Z,6.33
2023-08-13T07:28:52.766Z,6.30
2023-08-13T07:36:55.739Z,4.83
2023-08-13T07:40:02.799Z,7.28
2023-08-13T07:45:37.712Z,4.72
2023-08-13T07:51:12.673Z,5.40
2023-08-13T07:54:19.847Z,4.58
2023-08-13T07:59:56.232Z,5.08
2023-08-13T08:02:56.570Z,6.67
2023-08-13T08:08:31.613Z,3.83
2023-08-13T08:16:36.700Z,5.50
2023-08-13T08:19:43.729Z,4.15
2023-08-13T08:25:24.687Z,4.30
2023-08-13T08:28:31.655Z,3.25
2023-08-13T08:31:38.160Z,4.30
2023-08-13T08:34:44.072Z,7.15
2023-08-13T08:40:20.297Z,6.35
2023-08-13T08:43:26.992Z,3.95
2023-08-13T08:46:31.997Z,5.72
2023-08-13T08:52:08.414Z,6.28
2023-08-13T08:57:45.110Z,6.35
2023-08-13T09:03:20.115Z,4.50
2023-08-13T09:08:55.876Z,4.70
2023-08-13T09:14:31.028Z,6.08
2023-08-13T09:20:08.132Z,3.85
2023-08-13T09:28:13.038Z,4.40
2023-08-13T09:33:48.703Z,6.35
2023-08-13T09:39:24.029Z,3.40
2023-08-13T09:47:28.035Z,4.65
2023-08-13T09:50:34.598Z,5.78
2023-08-13T09:56:11.412Z,4.12
2023-08-13T09:59:17.637Z,5.35
2023-08-13T10:02:23.178Z,5.00
2023-08-13T10:05:29.814Z,7.12
2023-08-13T10:08:35.962Z,4.50
2023-08-13T10:11:41.277Z,6.00
2023-08-13T10:14:47.233Z,5.33
2023-08-13T10:17:55.907Z,4.33
2023-08-13T10:26:01.011Z,3.62
2023-08-13T10:31:42.726Z,3.65
2023-08-13T10:35:02.144Z,4.85
2023-08-13T10:38:13.038Z,3.35
2023-08-13T10:43:49.455Z,5.42
2023-08-13T10:51:54.354Z,4.47
2023-08-13T10:54:59.634Z,6.80
2023-08-13T11:00:39.894Z,5.55
2023-08-13T11:03:48.180Z,2.72
2023-08-13T11:06:54.221Z,3.77
2023-08-13T11:10:00.197Z,3.42
2023-08-13T11:15:36.658Z,6.28
2023-08-13T11:18:41.845Z,4.12
2023-08-13T11:21:47.564Z,2.70
2023-08-13T11:27:23.812Z,3.22
2023-08-13T11:33:01.127Z,3.83
2023-08-13T11:38:37.896Z,3.52
2023-08-13T11:46:43.132Z,3.45
2023-08-13T11:49:58.480Z,7.12
2023-08-13T11:53:28.196Z,3.65
2023-08-13T11:56:35.002Z,4.55
2023-08-13T11:59:24.818Z,4.70
2023-08-13T12:02:30.114Z,2.62
2023-08-13T12:05:42.281Z,4.97
2023-08-13T12:08:48.152Z,5.03
2023-08-13T12:11:54.124Z,3.42
2023-08-13T12:15:00.126Z,3.65
2023-08-13T12:18:07.098Z,5.65
2023-08-13T12:23:42.904Z,3.62
2023-08-13T12:26:50.627Z,3.67
2023-08-13T12:29:56.800Z,3.25
2023-08-13T12:35:31.542Z,2.33
2023-08-13T12:38:29.166Z,2.75
2023-08-13T12:41:39.821Z,3.00
2023-08-13T12:49:42.085Z,4.15
2023-08-13T12:55:16.396Z,3.62
2023-08-13T13:00:52.882Z,3.40
2023-08-13T13:03:59.368Z,2.55
2023-08-13T13:06:56.837Z,5.00
2023-08-13T13:10:03.500Z,7.00
2023-08-13T13:15:39.279Z,2.65
2023-08-13T13:23:44.243Z,3.30
2023-08-13T13:26:49.596Z,4.37
2023-08-13T13:32:22.886Z,5.55
2023-08-13T13:35:28.032Z,4.17
2023-08-13T13:38:35.323Z,4.28
2023-08-13T13:46:40.041Z,2.75
2023-08-13T13:52:18.388Z,6.08
2023-08-13T13:57:54.297Z,3.37
2023-08-13T14:01:02.315Z,2.37
2023-08-13T14:06:36.978Z,3.30
2023-08-13T14:14:44.070Z,3.75
2023-08-13T14:20:20.415Z,5.85
2023-08-13T14:25:55.982Z,13.28
2023-08-13T14:29:03.011Z,9.78
2023-08-13T14:34:37.124Z,5.72
2023-08-13T14:37:42.678Z,7.53
2023-08-13T14:43:19.341Z,5.42
2023-08-13T14:48:53.619Z,3.55
2023-08-13T14:51:59.257Z,6.83
2023-08-13T14:57:34.453Z,8.28
2023-08-13T15:03:10.998Z,5.20
2023-08-13T15:08:47.302Z,4.30
2023-08-13T15:14:24.461Z,5.42
2023-08-13T15:17:30.031Z,4.75
2023-08-13T15:23:04.977Z,3.70
2023-08-13T15:26:11.254Z,5.17
2023-08-13T15:34:16.937Z,4.50
2023-08-13T15:39:50.838Z,4.65
2023-08-13T15:45:25.965Z,2.50
2023-08-13T15:51:01.315Z,5.15
2023-08-13T15:56:37.045Z,5.17
2023-08-13T16:02:12.221Z,5.00
2023-08-13T16:07:47.535Z,4.03
2023-08-13T16:10:53.951Z,5.22
2023-08-13T16:16:29.889Z,9.08
2023-08-13T16:22:05.704Z,25.77
2023-08-13T16:27:40.693Z,48.78
2023-08-13T16:30:46.458Z,57.23
2023-08-13T16:36:18.397Z,40.20
2023-08-13T16:41:53.792Z,35.78
2023-08-13T16:45:00.567Z,42.78
2023-08-13T16:50:35.910Z,38.75
2023-08-13T16:56:11.977Z,37.70
2023-08-13T17:01:48.698Z,44.03
2023-08-13T17:07:22.997Z,41.58
2023-08-13T17:10:29.593Z,36.23
2023-08-13T17:16:08.709Z,29.65
2023-08-13T17:21:45.687Z,20.02
2023-08-13T17:29:50.687Z,15.98
2023-08-13T17:35:27.298Z,13.40
2023-08-13T17:41:03.857Z,14.10
2023-08-13T17:46:40.689Z,12.80
2023-08-13T17:52:15.767Z,13.48
2023-08-13T17:57:52.223Z,16.23
2023-08-13T18:00:57.433Z,11.63
2023-08-13T18:09:05.965Z,15.63
2023-08-13T18:17:07.964Z,15.98
2023-08-13T18:22:41.795Z,15.90
2023-08-13T18:25:48.883Z,21.00
2023-08-13T18:33:54.254Z,22.85
2023-08-13T18:37:00.138Z,24.20
2023-08-13T18:42:34.887Z,33.18
2023-08-13T18:48:12.348Z,23.87
2023-08-13T18:53:47.314Z,24.72
2023-08-13T19:01:56.097Z,22.25
2023-08-13T19:10:04.036Z,25.50
2023-08-13T19:18:10.252Z,22.48
2023-08-13T19:21:16.135Z,20.32
2023-08-13T19:26:50.938Z,26.02
2023-08-13T19:32:27.026Z,20.77
2023-08-13T19:38:01.872Z,21.20
2023-08-13T19:41:12.028Z,18.42
2023-08-13T19:47:09.905Z,33.48
2023-08-13T19:50:16.705Z,36.05
2023-08-13T19:58:21.870Z,25.05
2023-08-13T20:03:59.067Z,18.45
2023-08-13T20:07:05.082Z,25.35
2023-08-13T20:12:39.146Z,19.57
2023-08-13T20:18:14.892Z,32.15
2023-08-13T20:21:21.587Z,31.23
2023-08-13T20:27:05.078Z,28.47
2023-08-13T20:30:11.518Z,26.00
2023-08-13T20:33:19.191Z,25.90
2023-08-13T20:36:25.125Z,21.37
2023-08-13T20:39:30.528Z,23.75
2023-08-13T20:45:04.870Z,21.50
2023-08-13T20:53:10.837Z,19.87
2023-08-13T20:58:45.865Z,29.87
2023-08-13T21:04:20.947Z,23.07
2023-08-13T21:09:55.872Z,22.02
2023-08-13T21:13:00.932Z,21.97
2023-08-13T21:18:35.710Z,42.88
2023-08-13T21:24:11.267Z,38.38
2023-08-13T21:29:45.407Z,38.40
2023-08-13T21:35:22.307Z,13.00
2023-08-13T21:40:58.592Z,14.40
2023-08-13T21:46:33.808Z,15.78
2023-08-13T21:54:39.120Z,12.95
2023-08-13T21:57:44.341Z,14.07
2023-08-13T22:03:18.862Z,16.52
2023-08-13T22:08:54.671Z,15.70
2023-08-13T22:14:30.351Z,16.50
2023-08-13T22:20:09.561Z,27.00
2023-08-13T22:23:11.445Z,57.00
2023-08-13T22:26:19.093Z,53.05
2023-08-13T22:29:09.239Z,52.70
2023-08-13T22:34:44.659Z,47.88
2023-08-13T22:37:49.954Z,42.67
2023-08-13T22:43:22.127Z,30.40
2023-08-13T22:46:28.459Z,28.65
2023-08-13T22:54:34.079Z,19.20
2023-08-13T23:00:09.448Z,12.95
2023-08-13T23:05:46.014Z,14.90
2023-08-13T23:11:21.271Z,11.18
2023-08-13T23:16:57.963Z,9.88
2023-08-13T23:22:33.130Z,10.98
2023-08-13T23:28:08.242Z,15.28
2023-08-13T23:33:44.050Z,12.45
2023-08-13T23:41:50.334Z,10.93
2023-08-13T23:47:26.051Z,12.43
2023-08-13T23:53:00.732Z,14.00
2023-08-13T23:58:35.617Z,15.53
